sensor_id;sensor_type;location;lat;lon;timestamp;temperature;humidity
16074;DHT22;8141;52.664;5.074;2023-09-19T00:00:22;24.80;66.70
16074;DHT22;8141;52.664;5.074;2023-09-19T00:02:56;24.90;66.80
16074;DHT22;8141;52.664;5.074;2023-09-19T00:05:28;24.90;66.80
16074;DHT22;8141;52.664;5.074;2023-09-19T00:07:56;24.90;66.80
16074;DHT22;8141;52.664;5.074;2023-09-19T00:10:27;24.90;66.80
16074;DHT22;8141;52.664;5.074;2023-09-19T00:12:57;24.90;66.80
16074;DHT22;8141;52.664;5.074;2023-09-19T00:15:26;24.80;66.80
16074;DHT22;8141;52.664;5.074;2023-09-19T00:17:55;24.90;66.80
16074;DHT22;8141;52.664;5.074;2023-09-19T00:20:22;24.90;66.80
16074;DHT22;8141;52.664;5.074;2023-09-19T00:22:49;24.80;66.90
16074;DHT22;8141;52.664;5.074;2023-09-19T00:25:19;24.90;66.80
16074;DHT22;8141;52.664;5.074;2023-09-19T00:27:46;24.90;66.80
16074;DHT22;8141;52.664;5.074;2023-09-19T00:30:13;24.90;66.80
16074;DHT22;8141;52.664;5.074;2023-09-19T00:32:42;24.90;66.90
16074;DHT22;8141;52.664;5.074;2023-09-19T00:35:08;24.90;66.80
16074;DHT22;8141;52.664;5.074;2023-09-19T00:37:37;24.80;66.80
16074;DHT22;8141;52.664;5.074;2023-09-19T00:40:06;24.80;66.80
16074;DHT22;8141;52.664;5.074;2023-09-19T00:46:18;24.80;66.80
16074;DHT22;8141;52.664;5.074;2023-09-19T00:48:44;24.80;66.80
16074;DHT22;8141;52.664;5.074;2023-09-19T00:51:10;24.90;66.90
16074;DHT22;8141;52.664;5.074;2023-09-19T00:53:36;24.80;66.80
16074;DHT22;8141;52.664;5.074;2023-09-19T00:56:04;24.80;66.80
16074;DHT22;8141;52.664;5.074;2023-09-19T00:58:32;24.90;67.50
16074;DHT22;8141;52.664;5.074;2023-09-19T01:01:01;24.80;66.80
16074;DHT22;8141;52.664;5.074;2023-09-19T01:03:28;24.80;66.80
16074;DHT22;8141;52.664;5.074;2023-09-19T01:05:54;24.80;66.80
16074;DHT22;8141;52.664;5.074;2023-09-19T01:08:20;24.80;66.80
16074;DHT22;8141;52.664;5.074;2023-09-19T01:11:01;24.80;66.80
16074;DHT22;8141;52.664;5.074;2023-09-19T01:14:02;24.80;66.80
16074;DHT22;8141;52.664;5.074;2023-09-19T01:16:48;24.80;66.70
16074;DHT22;8141;52.664;5.074;2023-09-19T01:30:57;24.80;66.70
16074;DHT22;8141;52.664;5.074;2023-09-19T01:33:25;24.80;66.80
16074;DHT22;8141;52.664;5.074;2023-09-19T01:35:59;24.80;66.80
16074;DHT22;8141;52.664;5.074;2023-09-19T01:38:25;24.80;66.80
16074;DHT22;8141;52.664;5.074;2023-09-19T01:41:05;24.80;66.80
16074;DHT22;8141;52.664;5.074;2023-09-19T01:43:42;24.80;66.80
16074;DHT22;8141;52.664;5.074;2023-09-19T01:46:21;24.80;66.90
16074;DHT22;8141;52.664;5.074;2023-09-19T01:49:04;24.80;66.90
16074;DHT22;8141;52.664;5.074;2023-09-19T01:52:10;24.80;66.90
16074;DHT22;8141;52.664;5.074;2023-09-19T01:54:52;24.80;66.90
16074;DHT22;8141;52.664;5.074;2023-09-19T01:57:29;24.80;66.90
16074;DHT22;8141;52.664;5.074;2023-09-19T02:00:02;24.80;66.90
16074;DHT22;8141;52.664;5.074;2023-09-19T02:02:38;24.80;66.90
16074;DHT22;8141;52.664;5.074;2023-09-19T02:05:05;24.80;67.00
16074;DHT22;8141;52.664;5.074;2023-09-19T02:07:32;24.80;67.00
16074;DHT22;8141;52.664;5.074;2023-09-19T02:09:58;24.80;67.10
16074;DHT22;8141;52.664;5.074;2023-09-19T02:12:30;24.80;67.10
16074;DHT22;8141;52.664;5.074;2023-09-19T02:14:58;24.80;67.10
16074;DHT22;8141;52.664;5.074;2023-09-19T02:17:25;24.80;67.30
16074;DHT22;8141;52.664;5.074;2023-09-19T02:19:54;24.80;67.20
16074;DHT22;8141;52.664;5.074;2023-09-19T02:22:24;24.80;67.30
16074;DHT22;8141;52.664;5.074;2023-09-19T02:24:50;24.80;67.30
16074;DHT22;8141;52.664;5.074;2023-09-19T02:27:16;24.80;67.30
16074;DHT22;8141;52.664;5.074;2023-09-19T02:29:43;24.80;67.30
16074;DHT22;8141;52.664;5.074;2023-09-19T02:32:09;24.80;67.20
16074;DHT22;8141;52.664;5.074;2023-09-19T02:34:35;24.80;67.30
16074;DHT22;8141;52.664;5.074;2023-09-19T02:37:08;24.80;67.40
16074;DHT22;8141;52.664;5.074;2023-09-19T02:39:38;24.80;67.30
16074;DHT22;8141;52.664;5.074;2023-09-19T02:42:04;24.80;67.40
16074;DHT22;8141;52.664;5.074;2023-09-19T02:44:30;24.80;67.30
16074;DHT22;8141;52.664;5.074;2023-09-19T02:46:56;24.80;67.50
16074;DHT22;8141;52.664;5.074;2023-09-19T02:49:23;24.80;67.30
16074;DHT22;8141;52.664;5.074;2023-09-19T02:51:48;24.80;67.30
16074;DHT22;8141;52.664;5.074;2023-09-19T02:54:14;24.80;67.30
16074;DHT22;8141;52.664;5.074;2023-09-19T02:56:41;24.80;67.30
16074;DHT22;8141;52.664;5.074;2023-09-19T02:59:07;24.80;68.00
16074;DHT22;8141;52.664;5.074;2023-09-19T03:01:35;24.80;67.30
16074;DHT22;8141;52.664;5.074;2023-09-19T03:04:04;24.80;67.40
16074;DHT22;8141;52.664;5.074;2023-09-19T03:06:31;24.80;67.30
16074;DHT22;8141;52.664;5.074;2023-09-19T03:08:58;24.80;67.40
16074;DHT22;8141;52.664;5.074;2023-09-19T03:11:25;24.80;67.80
16074;DHT22;8141;52.664;5.074;2023-09-19T03:13:54;24.80;67.40
16074;DHT22;8141;52.664;5.074;2023-09-19T03:16:20;24.80;67.30
16074;DHT22;8141;52.664;5.074;2023-09-19T03:18:48;24.80;67.30
16074;DHT22;8141;52.664;5.074;2023-09-19T03:21:17;24.80;67.30
16074;DHT22;8141;52.664;5.074;2023-09-19T03:23:44;24.80;67.30
16074;DHT22;8141;52.664;5.074;2023-09-19T03:26:11;24.80;67.30
16074;DHT22;8141;52.664;5.074;2023-09-19T03:28:38;24.80;67.30
16074;DHT22;8141;52.664;5.074;2023-09-19T03:31:05;24.80;67.30
16074;DHT22;8141;52.664;5.074;2023-09-19T03:33:32;24.80;67.30
16074;DHT22;8141;52.664;5.074;2023-09-19T03:35:59;24.80;67.30
16074;DHT22;8141;52.664;5.074;2023-09-19T03:38:27;24.80;67.30
16074;DHT22;8141;52.664;5.074;2023-09-19T03:40:54;24.80;67.30
16074;DHT22;8141;52.664;5.074;2023-09-19T03:43:19;24.80;67.30
16074;DHT22;8141;52.664;5.074;2023-09-19T03:45:45;24.80;67.30
16074;DHT22;8141;52.664;5.074;2023-09-19T03:48:12;24.70;67.10
16074;DHT22;8141;52.664;5.074;2023-09-19T03:50:38;24.70;67.20
16074;DHT22;8141;52.664;5.074;2023-09-19T03:53:04;24.70;67.20
16074;DHT22;8141;52.664;5.074;2023-09-19T03:55:32;24.70;67.20
16074;DHT22;8141;52.664;5.074;2023-09-19T03:58:01;24.80;67.30
16074;DHT22;8141;52.664;5.074;2023-09-19T04:00:27;24.80;67.20
16074;DHT22;8141;52.664;5.074;2023-09-19T04:02:55;24.70;67.30
16074;DHT22;8141;52.664;5.074;2023-09-19T04:05:22;24.70;67.30
16074;DHT22;8141;52.664;5.074;2023-09-19T04:07:49;24.70;67.90
16074;DHT22;8141;52.664;5.074;2023-09-19T04:10:15;24.70;67.30
16074;DHT22;8141;52.664;5.074;2023-09-19T04:12:53;24.70;67.30
16074;DHT22;8141;52.664;5.074;2023-09-19T04:15:20;24.70;67.40
16074;DHT22;8141;52.664;5.074;2023-09-19T04:17:48;24.70;67.40
16074;DHT22;8141;52.664;5.074;2023-09-19T04:20:15;24.70;67.40
16074;DHT22;8141;52.664;5.074;2023-09-19T04:22:43;24.70;67.40
16074;DHT22;8141;52.664;5.074;2023-09-19T04:25:08;24.70;67.50
16074;DHT22;8141;52.664;5.074;2023-09-19T04:27:34;24.70;67.50
16074;DHT22;8141;52.664;5.074;2023-09-19T04:30:00;24.70;67.50
16074;DHT22;8141;52.664;5.074;2023-09-19T04:32:29;24.70;67.50
16074;DHT22;8141;52.664;5.074;2023-09-19T04:34:57;24.70;67.50
16074;DHT22;8141;52.664;5.074;2023-09-19T04:37:25;24.70;67.70
16074;DHT22;8141;52.664;5.074;2023-09-19T04:39:51;24.80;67.70
16074;DHT22;8141;52.664;5.074;2023-09-19T04:42:17;24.70;67.60
16074;DHT22;8141;52.664;5.074;2023-09-19T04:44:43;24.80;67.80
16074;DHT22;8141;52.664;5.074;2023-09-19T04:47:08;24.70;67.60
16074;DHT22;8141;52.664;5.074;2023-09-19T04:49:34;24.80;67.70
16074;DHT22;8141;52.664;5.074;2023-09-19T04:52:00;24.70;68.10
16074;DHT22;8141;52.664;5.074;2023-09-19T04:54:26;24.80;67.50
16074;DHT22;8141;52.664;5.074;2023-09-19T04:56:52;24.70;65.50
16074;DHT22;8141;52.664;5.074;2023-09-19T04:59:18;24.70;64.30
16074;DHT22;8141;52.664;5.074;2023-09-19T05:01:44;24.60;63.90
16074;DHT22;8141;52.664;5.074;2023-09-19T05:04:09;24.60;63.90
16074;DHT22;8141;52.664;5.074;2023-09-19T05:06:35;24.50;63.70
16074;DHT22;8141;52.664;5.074;2023-09-19T05:09:01;24.50;63.30
16074;DHT22;8141;52.664;5.074;2023-09-19T05:11:30;24.40;63.10
16074;DHT22;8141;52.664;5.074;2023-09-19T05:13:56;24.40;63.10
16074;DHT22;8141;52.664;5.074;2023-09-19T05:16:21;24.40;63.30
16074;DHT22;8141;52.664;5.074;2023-09-19T05:18:47;24.30;63.30
16074;DHT22;8141;52.664;5.074;2023-09-19T05:21:15;24.30;62.50
16074;DHT22;8141;52.664;5.074;2023-09-19T05:23:40;24.30;62.40
16074;DHT22;8141;52.664;5.074;2023-09-19T05:26:06;24.20;62.10
16074;DHT22;8141;52.664;5.074;2023-09-19T05:28:32;24.20;62.10
16074;DHT22;8141;52.664;5.074;2023-09-19T05:31:02;24.20;62.70
16074;DHT22;8141;52.664;5.074;2023-09-19T05:33:28;24.20;62.10
16074;DHT22;8141;52.664;5.074;2023-09-19T05:35:57;24.20;62.10
16074;DHT22;8141;52.664;5.074;2023-09-19T05:38:22;24.20;62.00
16074;DHT22;8141;52.664;5.074;2023-09-19T05:40:49;24.20;62.30
16074;DHT22;8141;52.664;5.074;2023-09-19T05:43:15;24.10;62.00
16074;DHT22;8141;52.664;5.074;2023-09-19T05:45:41;24.10;61.70
16074;DHT22;8141;52.664;5.074;2023-09-19T05:48:11;24.10;62.10
16074;DHT22;8141;52.664;5.074;2023-09-19T05:50:38;24.00;62.00
16074;DHT22;8141;52.664;5.074;2023-09-19T05:53:05;24.00;61.70
16074;DHT22;8141;52.664;5.074;2023-09-19T05:55:32;24.00;61.20
16074;DHT22;8141;52.664;5.074;2023-09-19T05:57:58;24.00;61.50
16074;DHT22;8141;52.664;5.074;2023-09-19T06:00:25;24.00;61.40
16074;DHT22;8141;52.664;5.074;2023-09-19T06:02:53;24.00;61.20
16074;DHT22;8141;52.664;5.074;2023-09-19T06:05:21;24.00;61.20
16074;DHT22;8141;52.664;5.074;2023-09-19T06:07:49;24.00;61.00
16074;DHT22;8141;52.664;5.074;2023-09-19T06:10:16;24.00;61.10
16074;DHT22;8141;52.664;5.074;2023-09-19T06:12:43;24.00;61.50
16074;DHT22;8141;52.664;5.074;2023-09-19T06:15:16;23.90;61.00
16074;DHT22;8141;52.664;5.074;2023-09-19T06:17:51;23.90;61.00
16074;DHT22;8141;52.664;5.074;2023-09-19T06:20:21;23.90;61.00
16074;DHT22;8141;52.664;5.074;2023-09-19T06:22:49;23.90;61.20
16074;DHT22;8141;52.664;5.074;2023-09-19T06:25:15;23.90;60.90
16074;DHT22;8141;52.664;5.074;2023-09-19T06:27:51;23.90;61.00
16074;DHT22;8141;52.664;5.074;2023-09-19T06:30:19;23.90;60.90
16074;DHT22;8141;52.664;5.074;2023-09-19T06:32:45;23.80;61.00
16074;DHT22;8141;52.664;5.074;2023-09-19T06:35:12;23.80;60.50
16074;DHT22;8141;52.664;5.074;2023-09-19T06:37:40;23.80;61.10
16074;DHT22;8141;52.664;5.074;2023-09-19T06:40:08;23.80;61.00
16074;DHT22;8141;52.664;5.074;2023-09-19T06:42:50;23.80;61.20
16074;DHT22;8141;52.664;5.074;2023-09-19T06:45:18;23.80;60.90
16074;DHT22;8141;52.664;5.074;2023-09-19T06:47:48;23.80;60.80
16074;DHT22;8141;52.664;5.074;2023-09-19T06:50:18;23.80;61.00
16074;DHT22;8141;52.664;5.074;2023-09-19T06:52:46;23.70;60.80
16074;DHT22;8141;52.664;5.074;2023-09-19T06:55:19;23.70;60.90
16074;DHT22;8141;52.664;5.074;2023-09-19T06:57:46;23.70;61.00
16074;DHT22;8141;52.664;5.074;2023-09-19T07:00:13;23.70;61.00
16074;DHT22;8141;52.664;5.074;2023-09-19T07:03:03;23.70;61.00
16074;DHT22;8141;52.664;5.074;2023-09-19T07:05:39;23.70;61.20
16074;DHT22;8141;52.664;5.074;2023-09-19T07:08:07;23.70;61.20
16074;DHT22;8141;52.664;5.074;2023-09-19T07:10:33;23.80;61.30
16074;DHT22;8141;52.664;5.074;2023-09-19T07:13:01;23.70;61.20
16074;DHT22;8141;52.664;5.074;2023-09-19T07:15:28;23.70;61.10
16074;DHT22;8141;52.664;5.074;2023-09-19T07:17:56;23.70;61.20
16074;DHT22;8141;52.664;5.074;2023-09-19T07:20:24;23.70;61.50
16074;DHT22;8141;52.664;5.074;2023-09-19T07:22:57;23.70;61.50
16074;DHT22;8141;52.664;5.074;2023-09-19T07:25:25;23.70;61.40
16074;DHT22;8141;52.664;5.074;2023-09-19T07:27:51;23.70;61.30
16074;DHT22;8141;52.664;5.074;2023-09-19T07:30:17;23.70;61.40
16074;DHT22;8141;52.664;5.074;2023-09-19T07:32:43;23.70;61.00
16074;DHT22;8141;52.664;5.074;2023-09-19T07:35:09;23.70;61.50
16074;DHT22;8141;52.664;5.074;2023-09-19T07:37:35;23.70;61.40
16074;DHT22;8141;52.664;5.074;2023-09-19T07:40:02;23.70;61.40
16074;DHT22;8141;52.664;5.074;2023-09-19T07:42:33;23.70;61.50
16074;DHT22;8141;52.664;5.074;2023-09-19T07:45:01;23.70;61.30
16074;DHT22;8141;52.664;5.074;2023-09-19T07:47:27;23.70;61.40
16074;DHT22;8141;52.664;5.074;2023-09-19T07:49:55;23.70;61.40
16074;DHT22;8141;52.664;5.074;2023-09-19T07:52:21;23.70;61.10
16074;DHT22;8141;52.664;5.074;2023-09-19T07:54:48;23.70;61.10
16074;DHT22;8141;52.664;5.074;2023-09-19T07:57:15;23.70;61.40
16074;DHT22;8141;52.664;5.074;2023-09-19T07:59:41;23.70;61.50
16074;DHT22;8141;52.664;5.074;2023-09-19T08:02:08;23.70;61.60
16074;DHT22;8141;52.664;5.074;2023-09-19T08:04:43;23.80;61.50
16074;DHT22;8141;52.664;5.074;2023-09-19T08:07:12;23.70;61.60
16074;DHT22;8141;52.664;5.074;2023-09-19T08:09:39;23.70;61.30
16074;DHT22;8141;52.664;5.074;2023-09-19T08:12:06;23.70;61.30
16074;DHT22;8141;52.664;5.074;2023-09-19T08:14:36;23.70;61.50
16074;DHT22;8141;52.664;5.074;2023-09-19T08:17:03;23.70;61.50
16074;DHT22;8141;52.664;5.074;2023-09-19T08:19:31;23.70;61.50
16074;DHT22;8141;52.664;5.074;2023-09-19T08:21:58;23.70;61.30
16074;DHT22;8141;52.664;5.074;2023-09-19T08:24:28;23.70;61.50
16074;DHT22;8141;52.664;5.074;2023-09-19T08:26:57;23.80;61.40
16074;DHT22;8141;52.664;5.074;2023-09-19T08:29:24;23.70;61.40
16074;DHT22;8141;52.664;5.074;2023-09-19T08:31:59;23.80;61.50
16074;DHT22;8141;52.664;5.074;2023-09-19T08:34:25;23.80;61.40
16074;DHT22;8141;52.664;5.074;2023-09-19T08:36:52;23.70;61.30
16074;DHT22;8141;52.664;5.074;2023-09-19T08:39:24;23.80;61.30
16074;DHT22;8141;52.664;5.074;2023-09-19T08:41:58;23.80;61.30
16074;DHT22;8141;52.664;5.074;2023-09-19T08:44:27;23.80;61.40
16074;DHT22;8141;52.664;5.074;2023-09-19T08:47:08;23.80;61.30
16074;DHT22;8141;52.664;5.074;2023-09-19T08:52:46;23.80;61.10
16074;DHT22;8141;52.664;5.074;2023-09-19T08:55:16;23.80;61.10
16074;DHT22;8141;52.664;5.074;2023-09-19T08:57:46;23.80;61.00
16074;DHT22;8141;52.664;5.074;2023-09-19T09:00:15;23.80;61.20
16074;DHT22;8141;52.664;5.074;2023-09-19T09:02:47;23.80;61.30
16074;DHT22;8141;52.664;5.074;2023-09-19T09:05:14;23.80;61.20
16074;DHT22;8141;52.664;5.074;2023-09-19T09:07:42;23.80;61.10
16074;DHT22;8141;52.664;5.074;2023-09-19T09:10:10;23.80;60.90
16074;DHT22;8141;52.664;5.074;2023-09-19T09:12:35;23.80;60.90
16074;DHT22;8141;52.664;5.074;2023-09-19T09:15:06;23.80;61.00
16074;DHT22;8141;52.664;5.074;2023-09-19T09:17:34;23.80;60.90
16074;DHT22;8141;52.664;5.074;2023-09-19T09:20:00;23.80;60.70
16074;DHT22;8141;52.664;5.074;2023-09-19T09:22:26;23.80;60.80
16074;DHT22;8141;52.664;5.074;2023-09-19T09:24:58;23.80;60.90
16074;DHT22;8141;52.664;5.074;2023-09-19T09:27:24;23.80;60.90
16074;DHT22;8141;52.664;5.074;2023-09-19T09:29:51;23.80;60.70
16074;DHT22;8141;52.664;5.074;2023-09-19T09:34:48;23.80;60.90
16074;DHT22;8141;52.664;5.074;2023-09-19T09:37:19;23.80;60.80
16074;DHT22;8141;52.664;5.074;2023-09-19T09:39:56;23.80;60.80
16074;DHT22;8141;52.664;5.074;2023-09-19T09:42:30;23.80;60.70
16074;DHT22;8141;52.664;5.074;2023-09-19T09:45:18;23.80;60.70
16074;DHT22;8141;52.664;5.074;2023-09-19T09:47:54;23.80;60.90
16074;DHT22;8141;52.664;5.074;2023-09-19T09:50:29;23.80;60.80
16074;DHT22;8141;52.664;5.074;2023-09-19T09:53:26;23.70;60.80
16074;DHT22;8141;52.664;5.074;2023-09-19T09:56:09;23.80;60.80
16074;DHT22;8141;52.664;5.074;2023-09-19T09:58:49;23.80;60.80
16074;DHT22;8141;52.664;5.074;2023-09-19T10:01:21;23.80;60.80
16074;DHT22;8141;52.664;5.074;2023-09-19T10:03:57;23.80;60.70
16074;DHT22;8141;52.664;5.074;2023-09-19T10:06:23;23.80;60.70
16074;DHT22;8141;52.664;5.074;2023-09-19T10:11:47;23.80;60.90
16074;DHT22;8141;52.664;5.074;2023-09-19T10:14:27;23.80;60.90
16074;DHT22;8141;52.664;5.074;2023-09-19T10:16:58;23.80;60.70
16074;DHT22;8141;52.664;5.074;2023-09-19T10:22:13;23.80;60.70
16074;DHT22;8141;52.664;5.074;2023-09-19T10:24:47;23.80;60.90
16074;DHT22;8141;52.664;5.074;2023-09-19T10:27:13;23.80;60.70
16074;DHT22;8141;52.664;5.074;2023-09-19T10:29:44;23.80;60.80
16074;DHT22;8141;52.664;5.074;2023-09-19T10:32:14;23.80;60.70
16074;DHT22;8141;52.664;5.074;2023-09-19T10:34:46;23.80;60.80
16074;DHT22;8141;52.664;5.074;2023-09-19T10:37:13;23.80;60.80
16074;DHT22;8141;52.664;5.074;2023-09-19T10:39:46;23.80;60.80
16074;DHT22;8141;52.664;5.074;2023-09-19T10:42:16;23.80;61.30
16074;DHT22;8141;52.664;5.074;2023-09-19T10:44:47;23.80;60.70
16074;DHT22;8141;52.664;5.074;2023-09-19T10:47:19;23.80;60.70
16074;DHT22;8141;52.664;5.074;2023-09-19T10:49:46;23.80;60.60
16074;DHT22;8141;52.664;5.074;2023-09-19T10:52:14;23.80;60.60
16074;DHT22;8141;52.664;5.074;2023-09-19T10:54:48;23.80;60.70
16074;DHT22;8141;52.664;5.074;2023-09-19T10:57:21;23.80;60.70
16074;DHT22;8141;52.664;5.074;2023-09-19T11:00:08;23.80;60.50
16074;DHT22;8141;52.664;5.074;2023-09-19T11:05:41;23.80;60.70
16074;DHT22;8141;52.664;5.074;2023-09-19T11:08:07;23.80;60.60
16074;DHT22;8141;52.664;5.074;2023-09-19T11:10:50;23.80;60.70
16074;DHT22;8141;52.664;5.074;2023-09-19T11:13:31;23.80;60.60
16074;DHT22;8141;52.664;5.074;2023-09-19T11:24:27;23.80;60.70
16074;DHT22;8141;52.664;5.074;2023-09-19T11:27:15;23.80;60.60
16074;DHT22;8141;52.664;5.074;2023-09-19T11:29:43;23.90;60.80
16074;DHT22;8141;52.664;5.074;2023-09-19T11:32:10;23.80;60.70
16074;DHT22;8141;52.664;5.074;2023-09-19T11:37:02;23.80;60.80
16074;DHT22;8141;52.664;5.074;2023-09-19T11:40:05;23.90;60.80
16074;DHT22;8141;52.664;5.074;2023-09-19T11:42:45;23.80;60.70
16074;DHT22;8141;52.664;5.074;2023-09-19T11:48:18;23.80;60.70
16074;DHT22;8141;52.664;5.074;2023-09-19T11:50:45;23.80;60.70
16074;DHT22;8141;52.664;5.074;2023-09-19T11:53:13;23.80;60.70
16074;DHT22;8141;52.664;5.074;2023-09-19T11:55:40;23.80;60.70
16074;DHT22;8141;52.664;5.074;2023-09-19T11:58:08;23.80;60.80
16074;DHT22;8141;52.664;5.074;2023-09-19T12:00:38;23.80;60.80
16074;DHT22;8141;52.664;5.074;2023-09-19T12:03:09;23.80;60.70
16074;DHT22;8141;52.664;5.074;2023-09-19T12:05:36;23.80;60.80
16074;DHT22;8141;52.664;5.074;2023-09-19T12:08:04;23.90;60.80
16074;DHT22;8141;52.664;5.074;2023-09-19T12:10:50;23.80;60.80
16074;DHT22;8141;52.664;5.074;2023-09-19T12:13:20;23.80;60.70
16074;DHT22;8141;52.664;5.074;2023-09-19T12:15:46;23.90;60.80
16074;DHT22;8141;52.664;5.074;2023-09-19T12:18:30;23.80;60.80
16074;DHT22;8141;52.664;5.074;2023-09-19T12:20:57;23.80;60.90
16074;DHT22;8141;52.664;5.074;2023-09-19T12:23:28;23.90;60.90
16074;DHT22;8141;52.664;5.074;2023-09-19T12:25:54;23.90;61.00
16074;DHT22;8141;52.664;5.074;2023-09-19T12:28:27;23.90;61.00
16074;DHT22;8141;52.664;5.074;2023-09-19T12:30:56;23.90;61.60
16074;DHT22;8141;52.664;5.074;2023-09-19T12:33:23;23.90;61.00
16074;DHT22;8141;52.664;5.074;2023-09-19T12:35:52;23.90;61.00
16074;DHT22;8141;52.664;5.074;2023-09-19T12:38:28;23.90;61.00
16074;DHT22;8141;52.664;5.074;2023-09-19T12:40:57;23.80;61.00
16074;DHT22;8141;52.664;5.074;2023-09-19T12:43:26;23.90;61.00
16074;DHT22;8141;52.664;5.074;2023-09-19T12:45:53;23.90;61.00
16074;DHT22;8141;52.664;5.074;2023-09-19T12:51:05;23.90;61.10
16074;DHT22;8141;52.664;5.074;2023-09-19T12:53:39;23.90;61.10
16074;DHT22;8141;52.664;5.074;2023-09-19T12:56:12;23.90;61.10
16074;DHT22;8141;52.664;5.074;2023-09-19T12:58:54;23.90;61.10
16074;DHT22;8141;52.664;5.074;2023-09-19T13:01:32;23.90;61.10
16074;DHT22;8141;52.664;5.074;2023-09-19T13:04:17;23.90;61.10
16074;DHT22;8141;52.664;5.074;2023-09-19T13:06:49;23.90;61.10
16074;DHT22;8141;52.664;5.074;2023-09-19T13:09:16;23.90;61.10
16074;DHT22;8141;52.664;5.074;2023-09-19T13:11:43;23.90;61.20
16074;DHT22;8141;52.664;5.074;2023-09-19T13:14:26;23.90;61.20
16074;DHT22;8141;52.664;5.074;2023-09-19T13:19:43;23.90;61.20
16074;DHT22;8141;52.664;5.074;2023-09-19T13:25:28;23.90;61.20
16074;DHT22;8141;52.664;5.074;2023-09-19T13:27:56;23.90;61.20
16074;DHT22;8141;52.664;5.074;2023-09-19T13:30:24;23.90;61.20
16074;DHT22;8141;52.664;5.074;2023-09-19T13:32:52;24.00;61.20
16074;DHT22;8141;52.664;5.074;2023-09-19T13:35:29;23.90;61.20
16074;DHT22;8141;52.664;5.074;2023-09-19T13:37:55;23.90;61.20
16074;DHT22;8141;52.664;5.074;2023-09-19T13:40:20;24.00;61.30
16074;DHT22;8141;52.664;5.074;2023-09-19T13:42:46;24.00;61.20
16074;DHT22;8141;52.664;5.074;2023-09-19T13:45:12;24.00;61.20
16074;DHT22;8141;52.664;5.074;2023-09-19T13:47:41;23.90;61.20
16074;DHT22;8141;52.664;5.074;2023-09-19T13:50:07;24.00;61.20
16074;DHT22;8141;52.664;5.074;2023-09-19T13:52:34;24.00;61.20
16074;DHT22;8141;52.664;5.074;2023-09-19T13:54:59;23.90;61.20
16074;DHT22;8141;52.664;5.074;2023-09-19T13:57:26;24.00;61.20
16074;DHT22;8141;52.664;5.074;2023-09-19T13:59:52;24.00;61.20
16074;DHT22;8141;52.664;5.074;2023-09-19T14:02:22;24.00;61.30
16074;DHT22;8141;52.664;5.074;2023-09-19T14:04:52;24.00;61.30
16074;DHT22;8141;52.664;5.074;2023-09-19T14:07:18;23.90;61.20
16074;DHT22;8141;52.664;5.074;2023-09-19T14:09:45;24.00;61.30
16074;DHT22;8141;52.664;5.074;2023-09-19T14:12:11;24.00;61.30
16074;DHT22;8141;52.664;5.074;2023-09-19T14:14:38;24.00;61.30
16074;DHT22;8141;52.664;5.074;2023-09-19T14:17:04;24.00;61.20
16074;DHT22;8141;52.664;5.074;2023-09-19T14:19:30;24.00;61.30
16074;DHT22;8141;52.664;5.074;2023-09-19T14:21:56;23.90;61.20
16074;DHT22;8141;52.664;5.074;2023-09-19T14:24:22;24.00;61.30
16074;DHT22;8141;52.664;5.074;2023-09-19T14:26:49;24.00;61.40
16074;DHT22;8141;52.664;5.074;2023-09-19T14:29:16;24.00;61.20
16074;DHT22;8141;52.664;5.074;2023-09-19T14:31:42;24.00;61.30
16074;DHT22;8141;52.664;5.074;2023-09-19T14:34:08;24.00;61.40
16074;DHT22;8141;52.664;5.074;2023-09-19T14:36:37;24.00;61.40
16074;DHT22;8141;52.664;5.074;2023-09-19T14:39:04;24.00;61.40
16074;DHT22;8141;52.664;5.074;2023-09-19T14:41:30;24.00;61.40
16074;DHT22;8141;52.664;5.074;2023-09-19T14:43:56;24.00;61.50
16074;DHT22;8141;52.664;5.074;2023-09-19T14:46:22;24.00;61.40
16074;DHT22;8141;52.664;5.074;2023-09-19T14:48:53;24.00;61.40
16074;DHT22;8141;52.664;5.074;2023-09-19T14:51:19;24.00;61.50
16074;DHT22;8141;52.664;5.074;2023-09-19T14:53:45;24.00;61.50
16074;DHT22;8141;52.664;5.074;2023-09-19T14:56:12;24.00;61.70
16074;DHT22;8141;52.664;5.074;2023-09-19T14:58:41;24.00;61.70
16074;DHT22;8141;52.664;5.074;2023-09-19T15:01:12;24.00;61.80
16074;DHT22;8141;52.664;5.074;2023-09-19T15:03:39;24.00;61.80
16074;DHT22;8141;52.664;5.074;2023-09-19T15:06:10;24.00;61.80
16074;DHT22;8141;52.664;5.074;2023-09-19T15:08:46;24.00;61.80
16074;DHT22;8141;52.664;5.074;2023-09-19T15:11:18;24.00;61.90
16074;DHT22;8141;52.664;5.074;2023-09-19T15:13:46;23.90;61.80
16074;DHT22;8141;52.664;5.074;2023-09-19T15:16:13;24.00;61.70
16074;DHT22;8141;52.664;5.074;2023-09-19T15:18:44;24.00;61.90
16074;DHT22;8141;52.664;5.074;2023-09-19T15:21:14;24.00;61.90
16074;DHT22;8141;52.664;5.074;2023-09-19T15:23:41;24.00;62.10
16074;DHT22;8141;52.664;5.074;2023-09-19T15:26:10;24.00;61.90
16074;DHT22;8141;52.664;5.074;2023-09-19T15:28:37;24.00;62.00
16074;DHT22;8141;52.664;5.074;2023-09-19T15:33:33;24.00;62.10
16074;DHT22;8141;52.664;5.074;2023-09-19T15:36:10;24.00;62.10
16074;DHT22;8141;52.664;5.074;2023-09-19T15:39:02;23.90;62.10
16074;DHT22;8141;52.664;5.074;2023-09-19T15:41:36;23.90;62.10
16074;DHT22;8141;52.664;5.074;2023-09-19T15:44:11;23.90;62.30
16074;DHT22;8141;52.664;5.074;2023-09-19T15:46:42;23.90;62.30
16074;DHT22;8141;52.664;5.074;2023-09-19T15:49:08;24.00;62.40
16074;DHT22;8141;52.664;5.074;2023-09-19T15:51:34;23.90;62.30
16074;DHT22;8141;52.664;5.074;2023-09-19T15:54:07;24.00;62.50
16074;DHT22;8141;52.664;5.074;2023-09-19T15:56:35;23.90;62.40
16074;DHT22;8141;52.664;5.074;2023-09-19T15:59:00;24.00;62.50
16074;DHT22;8141;52.664;5.074;2023-09-19T16:01:26;23.90;62.30
16074;DHT22;8141;52.664;5.074;2023-09-19T16:03:54;23.90;62.40
16074;DHT22;8141;52.664;5.074;2023-09-19T16:06:24;23.90;62.40
16074;DHT22;8141;52.664;5.074;2023-09-19T16:08:55;23.90;62.50
16074;DHT22;8141;52.664;5.074;2023-09-19T16:11:24;23.90;62.60
16074;DHT22;8141;52.664;5.074;2023-09-19T16:13:51;23.90;62.60
16074;DHT22;8141;52.664;5.074;2023-09-19T16:16:20;23.90;62.40
16074;DHT22;8141;52.664;5.074;2023-09-19T16:18:58;23.90;62.40
16074;DHT22;8141;52.664;5.074;2023-09-19T16:21:27;23.90;62.50
16074;DHT22;8141;52.664;5.074;2023-09-19T16:23:54;23.90;63.30
16074;DHT22;8141;52.664;5.074;2023-09-19T16:26:22;23.90;62.60
16074;DHT22;8141;52.664;5.074;2023-09-19T16:28:53;23.90;62.60
16074;DHT22;8141;52.664;5.074;2023-09-19T16:31:21;24.00;62.60
16074;DHT22;8141;52.664;5.074;2023-09-19T16:33:47;24.00;62.80
16074;DHT22;8141;52.664;5.074;2023-09-19T16:36:17;23.90;62.50
16074;DHT22;8141;52.664;5.074;2023-09-19T16:38:45;23.90;62.60
16074;DHT22;8141;52.664;5.074;2023-09-19T16:41:13;23.90;62.50
16074;DHT22;8141;52.664;5.074;2023-09-19T16:43:40;23.90;62.60
16074;DHT22;8141;52.664;5.074;2023-09-19T16:46:08;23.90;62.60
16074;DHT22;8141;52.664;5.074;2023-09-19T16:48:37;23.90;62.60
16074;DHT22;8141;52.664;5.074;2023-09-19T16:51:08;23.90;62.50
16074;DHT22;8141;52.664;5.074;2023-09-19T16:53:36;23.90;62.50